Whitcomb Heights, Indiana
Current Conditions -  °F | °C
As of 10:53 AM on Wednesday 28 Jan 2015 (Local Time) from KHUF Reporting Station
Clear Clear  
Wind Chill: -8°   Ceiling: Unl
Heat Index: -2°   Visibility: 10mi
Dew Point: -8°   Wind: 13mph
Humidity: 66%   Direction: 150°SSE
Pressure: 30.33"   Gusts: NA
Location:  39.5107°N, 87.4772°W
Report Text: KHUF 281553Z 15011KT 10SM CLR M02/M08 A3033 RMK AO2 SLP278 T10221078
Loading
Personal Weather Stations






























Interactive Weather Map New forecast layout! Learn more

10-Day Weather Forecast

Advertisements
Track Severe Weather on mobile